Terminal Aerodrome Forecast
Issued by NWS

Current Version | Previous Version | Text Only | Print | Product List | Glossary Off
Versions: 1 2 3 4 5 6 7 8 9 10 11 12 13 14 15 16 17 18 19 20 21

142
FTUS41 KPBZ 230856 AAB
TAFHLG
TAF AMD
KHLG 230856Z 2309/2406 VRB02KT 1/4SM FG BKN001
     FM231300 02003KT 4SM BR SCT070
     FM231500 36007KT P6SM SCT040=

USA.gov is the U.S. government's official web portal to all federal, state and local government web resources and services.